createdAt,value
2019-04-21T00:02:04.349Z,9.60
2019-04-21T00:04:48.336Z,9.80
2019-04-21T00:07:25.087Z,9.70
2019-04-21T00:09:58.213Z,9.70
2019-04-21T00:12:29.942Z,9.70
2019-04-21T00:14:54.985Z,9.70
2019-04-21T00:17:18.232Z,9.70
2019-04-21T00:20:09.255Z,9.70
2019-04-21T00:22:58.852Z,9.70
2019-04-21T00:25:33.899Z,9.60
2019-04-21T00:28:21.967Z,9.60
2019-04-21T00:30:44.381Z,9.60
2019-04-21T00:33:06.228Z,9.60
2019-04-21T00:35:29.406Z,9.60
2019-04-21T00:38:22.739Z,9.60
2019-04-21T00:40:53.819Z,9.50
2019-04-21T00:43:20.792Z,9.50
2019-04-21T00:45:50.857Z,9.40
2019-04-21T00:48:29.801Z,9.40
2019-04-21T00:51:16.412Z,9.60
2019-04-21T00:53:43.870Z,9.60
2019-04-21T00:56:20.137Z,9.60
2019-04-21T00:58:59.267Z,9.70
2019-04-21T01:01:14.764Z,9.70
2019-04-21T01:03:52.577Z,9.80
2019-04-21T01:06:22.683Z,9.70
2019-04-21T01:08:49.912Z,9.60
2019-04-21T01:11:28.105Z,9.50
2019-04-21T01:13:57.982Z,9.40
2019-04-21T01:16:31.619Z,9.30
2019-04-21T01:18:54.845Z,9.20
2019-04-21T01:21:13.992Z,9.20
2019-04-21T01:23:38.399Z,9.10
2019-04-21T01:26:22.879Z,9.00
2019-04-21T01:29:01.513Z,9.10
2019-04-21T01:31:30.040Z,9.10
2019-04-21T01:34:02.912Z,9.20
2019-04-21T01:36:34.636Z,9.20
2019-04-21T01:39:14.927Z,9.30
2019-04-21T01:41:46.266Z,9.40
2019-04-21T01:44:14.890Z,9.30
2019-04-21T01:46:41.708Z,9.20
2019-04-21T01:49:09.531Z,9.20
2019-04-21T01:51:57.955Z,9.20
2019-04-21T01:54:31.735Z,9.10
2019-04-21T01:57:07.325Z,9.00
2019-04-21T01:59:36.310Z,9.00
2019-04-21T02:02:11.084Z,8.80
2019-04-21T02:04:52.277Z,8.70
2019-04-21T02:07:15.081Z,8.60
2019-04-21T02:09:51.008Z,8.50
2019-04-21T02:12:20.995Z,8.30
2019-04-21T02:15:03.216Z,8.40
2019-04-21T02:17:23.911Z,8.40
2019-04-21T02:19:51.855Z,8.30
2019-04-21T02:22:43.204Z,8.30
2019-04-21T02:25:00.969Z,8.20
2019-04-21T02:27:31.100Z,8.10
2019-04-21T02:30:10.203Z,8.00
2019-04-21T02:32:48.244Z,8.00
2019-04-21T02:43:07.095Z,7.90
2019-04-21T02:48:04.116Z,7.80
2019-04-21T02:50:31.530Z,7.80
2019-04-21T02:53:01.313Z,7.80
2019-04-21T02:55:31.268Z,7.80
2019-04-21T02:58:25.027Z,7.70
2019-04-21T03:01:14.414Z,7.60
2019-04-21T03:04:05.707Z,7.50
2019-04-21T03:06:50.547Z,7.60
2019-04-21T03:09:24.070Z,7.60
2019-04-21T03:11:56.130Z,7.60
2019-04-21T03:14:40.791Z,7.70
2019-04-21T03:16:55.595Z,7.80
2019-04-21T03:19:41.652Z,7.80
2019-04-21T03:22:05.092Z,7.90
2019-04-21T03:25:04.653Z,8.00
2019-04-21T03:27:34.890Z,8.20
2019-04-21T03:37:17.261Z,7.90
2019-04-21T03:42:25.622Z,7.80
2019-04-21T03:45:06.680Z,7.70
2019-04-21T03:47:25.226Z,7.80
2019-04-21T03:49:54.747Z,7.80
2019-04-21T04:00:59.508Z,7.40
2019-04-21T04:06:24.597Z,7.30
2019-04-21T04:09:40.029Z,7.30
2019-04-21T04:12:19.411Z,7.40
2019-04-21T04:14:42.371Z,7.30
2019-04-21T04:22:14.591Z,7.60
2019-04-21T04:29:51.340Z,7.30
2019-04-21T04:37:40.600Z,7.30
2019-04-21T04:43:11.703Z,7.40
2019-04-21T04:48:24.128Z,7.30
2019-04-21T04:50:53.139Z,7.20
2019-04-21T04:53:42.649Z,7.30
2019-04-21T04:55:47.829Z,7.30
2019-04-21T05:03:41.738Z,7.70
2019-04-21T05:16:46.664Z,12.70
2019-04-21T05:21:34.262Z,14.60
2019-04-21T05:23:55.856Z,15.50
2019-04-21T05:26:23.091Z,16.20
2019-04-21T05:28:55.397Z,16.80
2019-04-21T05:31:50.897Z,17.30
2019-04-21T05:34:27.599Z,17.50
2019-04-21T05:37:23.274Z,18.00
2019-04-21T05:39:52.567Z,18.10
2019-04-21T05:42:24.976Z,18.20
2019-04-21T05:47:41.634Z,19.10
2019-04-21T05:50:11.459Z,19.30
2019-04-21T05:52:51.932Z,20.10
2019-04-21T05:58:02.568Z,21.20
2019-04-21T06:00:56.036Z,21.30
2019-04-21T06:03:13.452Z,21.10
2019-04-21T06:05:53.399Z,21.40
2019-04-21T06:08:12.908Z,21.80
2019-04-21T06:10:47.375Z,22.10
2019-04-21T06:13:24.403Z,21.30
2019-04-21T06:16:03.153Z,21.00
2019-04-21T06:18:27.255Z,20.70
2019-04-21T06:20:54.713Z,20.80
2019-04-21T06:23:25.465Z,21.00
2019-04-21T06:26:06.263Z,20.90
2019-04-21T06:28:33.658Z,20.70
2019-04-21T06:33:36.424Z,21.50
2019-04-21T06:41:31.577Z,21.20
2019-04-21T06:44:07.570Z,20.70
2019-04-21T06:46:59.007Z,20.90
2019-04-21T06:51:32.361Z,21.60
2019-04-21T06:54:09.555Z,21.80
2019-04-21T06:56:40.960Z,21.50
2019-04-21T06:59:06.979Z,21.30
2019-04-21T07:02:05.280Z,21.40
2019-04-21T07:09:23.809Z,22.10
2019-04-21T07:11:50.444Z,22.10
2019-04-21T07:14:29.909Z,22.20
2019-04-21T07:16:56.386Z,22.10
2019-04-21T07:19:30.871Z,21.90
2019-04-21T07:21:55.602Z,21.70
2019-04-21T07:24:35.435Z,22.20
2019-04-21T07:27:02.683Z,22.60
2019-04-21T07:29:34.480Z,22.40
2019-04-21T07:32:06.563Z,22.30
2019-04-21T07:37:05.782Z,22.20
2019-04-21T07:39:32.614Z,22.30
2019-04-21T07:42:09.715Z,22.40
2019-04-21T07:44:35.152Z,22.60
2019-04-21T07:47:15.488Z,22.40
2019-04-21T07:50:07.309Z,22.30
2019-04-21T07:52:53.351Z,22.30
2019-04-21T07:57:44.201Z,22.40
2019-04-21T08:00:30.906Z,22.50
2019-04-21T08:02:56.297Z,22.10
2019-04-21T08:07:55.795Z,21.20
2019-04-21T08:10:31.205Z,20.50
2019-04-21T08:13:02.272Z,19.90
2019-04-21T08:15:39.930Z,19.30
2019-04-21T08:18:13.483Z,19.00
2019-04-21T08:20:34.905Z,18.70
2019-04-21T08:23:13.508Z,18.40
2019-04-21T08:25:53.259Z,18.20
2019-04-21T08:28:09.099Z,18.20
2019-04-21T08:30:47.727Z,18.20
2019-04-21T08:33:41.505Z,18.20
2019-04-21T08:38:31.266Z,18.30
2019-04-21T08:41:06.690Z,18.40
2019-04-21T08:43:36.768Z,18.60
2019-04-21T08:46:01.535Z,18.60
2019-04-21T08:48:33.334Z,18.80
2019-04-21T08:51:13.991Z,18.70
2019-04-21T08:53:42.706Z,18.80
2019-04-21T08:56:34.314Z,18.90
2019-04-21T08:59:31.503Z,19.10
2019-04-21T09:02:23.491Z,19.50
2019-04-21T09:04:54.184Z,19.70
2019-04-21T09:07:34.398Z,20.10
2019-04-21T09:09:57.854Z,20.00
2019-04-21T09:12:32.756Z,20.10
2019-04-21T09:15:01.165Z,20.10
2019-04-21T09:17:31.601Z,20.10
2019-04-21T09:20:13.849Z,20.10
2019-04-21T09:22:37.836Z,20.20
2019-04-21T09:25:09.077Z,20.30
2019-04-21T09:27:36.772Z,20.40
2019-04-21T09:30:00.304Z,20.40
2019-04-21T09:32:29.397Z,20.40
2019-04-21T09:35:03.418Z,20.40
2019-04-21T09:37:41.875Z,20.40
2019-04-21T09:40:03.002Z,20.50
2019-04-21T09:42:40.100Z,20.60
2019-04-21T09:45:07.675Z,20.50
2019-04-21T09:47:46.021Z,20.40
2019-04-21T09:50:09.568Z,20.50
2019-04-21T09:52:48.968Z,20.40
2019-04-21T09:55:18.910Z,20.50
2019-04-21T09:57:50.295Z,20.60
2019-04-21T10:00:22.498Z,20.60
2019-04-21T10:02:56.738Z,20.80
2019-04-21T10:05:21.440Z,20.80
2019-04-21T10:07:51.256Z,20.70
2019-04-21T10:10:23.080Z,20.80
2019-04-21T10:12:53.980Z,20.70
2019-04-21T10:15:26.316Z,20.70
2019-04-21T10:18:00.460Z,20.70
2019-04-21T10:20:30.964Z,20.70
2019-04-21T10:23:02.908Z,20.70
2019-04-21T10:25:34.459Z,20.60
2019-04-21T10:28:05.295Z,20.60
2019-04-21T10:30:36.446Z,20.70
2019-04-21T10:33:08.196Z,21.00
2019-04-21T10:35:57.494Z,21.00
2019-04-21T10:38:35.444Z,21.10
2019-04-21T10:40:59.651Z,21.10
2019-04-21T10:43:29.303Z,21.00
2019-04-21T10:46:01.097Z,20.90
2019-04-21T10:48:34.453Z,20.80
2019-04-21T10:51:03.263Z,20.80
2019-04-21T10:53:36.813Z,20.90
2019-04-21T10:56:16.965Z,21.00
2019-04-21T10:58:47.103Z,21.20
2019-04-21T11:01:19.379Z,21.20
2019-04-21T11:04:19.598Z,21.10
2019-04-21T11:06:44.284Z,21.10
2019-04-21T11:09:15.836Z,21.10
2019-04-21T11:11:48.088Z,21.30
2019-04-21T11:14:18.074Z,21.40
2019-04-21T11:16:49.767Z,21.50
2019-04-21T11:19:22.085Z,21.60
2019-04-21T11:21:52.602Z,21.60
2019-04-21T11:24:23.090Z,21.50
2019-04-21T11:26:53.784Z,21.50
2019-04-21T11:29:26.156Z,21.50
2019-04-21T11:31:56.969Z,21.50
2019-04-21T11:34:27.378Z,21.50
2019-04-21T11:36:56.803Z,21.40
2019-04-21T11:39:41.011Z,21.30
2019-04-21T11:42:05.931Z,21.30
2019-04-21T11:44:37.391Z,21.30
2019-04-21T11:47:10.508Z,21.30
2019-04-21T11:49:41.141Z,21.40
2019-04-21T11:52:13.338Z,21.30
2019-04-21T11:54:44.569Z,21.20
2019-04-21T11:57:22.068Z,21.20
2019-04-21T11:59:47.930Z,21.30
2019-04-21T12:02:19.432Z,21.30
2019-04-21T12:04:50.001Z,21.50
2019-04-21T12:07:20.315Z,21.60
2019-04-21T12:09:51.305Z,21.60
2019-04-21T12:12:21.473Z,21.60
2019-04-21T12:14:52.201Z,21.60
2019-04-21T12:17:22.166Z,21.60
2019-04-21T12:19:52.710Z,21.60
2019-04-21T12:22:27.266Z,21.80
2019-04-21T12:24:55.501Z,21.80
2019-04-21T12:27:27.737Z,21.70
2019-04-21T12:30:17.730Z,21.80
2019-04-21T12:33:14.022Z,21.90
2019-04-21T12:35:46.018Z,22.00
2019-04-21T12:38:28.392Z,22.00
2019-04-21T12:40:50.663Z,21.90
2019-04-21T12:43:21.036Z,21.90
2019-04-21T12:45:51.808Z,21.90
2019-04-21T12:48:23.813Z,21.90
2019-04-21T12:50:54.456Z,22.00
2019-04-21T12:53:25.574Z,22.10
2019-04-21T12:55:56.058Z,22.10
2019-04-21T12:58:26.041Z,22.10
2019-04-21T13:00:56.749Z,22.10
2019-04-21T13:03:28.651Z,22.00
2019-04-21T13:05:58.551Z,22.00
2019-04-21T13:08:30.268Z,22.00
2019-04-21T13:11:00.214Z,22.00
2019-04-21T13:13:32.099Z,22.10
2019-04-21T13:16:03.213Z,22.20
2019-04-21T13:18:33.396Z,22.20
2019-04-21T13:21:04.260Z,22.10
2019-04-21T13:23:35.057Z,22.10
2019-04-21T13:26:06.566Z,22.20
2019-04-21T13:28:37.753Z,22.40
2019-04-21T13:31:08.598Z,22.40
2019-04-21T13:33:39.856Z,22.50
2019-04-21T13:36:11.648Z,22.50
2019-04-21T13:39:32.725Z,22.40
2019-04-21T13:41:42.958Z,22.40
2019-04-21T13:44:13.506Z,22.40
2019-04-21T13:46:46.970Z,22.40
2019-04-21T13:49:17.425Z,22.40
2019-04-21T13:51:48.022Z,22.40
2019-04-21T13:54:18.189Z,22.40
2019-04-21T13:56:50.288Z,22.40
2019-04-21T13:59:20.173Z,22.40
2019-04-21T14:01:51.908Z,22.40
2019-04-21T14:04:23.376Z,22.40
2019-04-21T14:06:54.219Z,22.50
2019-04-21T14:09:35.969Z,22.50
2019-04-21T14:11:57.038Z,22.50
2019-04-21T14:14:28.295Z,22.40
2019-04-21T14:16:58.650Z,22.30
2019-04-21T14:19:31.057Z,22.30
2019-04-21T14:22:01.193Z,22.30
2019-04-21T14:24:31.271Z,22.40
2019-04-21T14:27:02.665Z,22.30
2019-04-21T14:29:33.477Z,22.30
2019-04-21T14:32:04.342Z,22.40
2019-04-21T14:34:35.572Z,22.40
2019-04-21T14:37:06.491Z,22.30
2019-04-21T14:39:48.552Z,22.30
2019-04-21T14:42:09.193Z,22.40
2019-04-21T14:44:40.576Z,22.40
2019-04-21T14:47:31.428Z,22.40
2019-04-21T14:50:24.422Z,22.40
2019-04-21T14:53:25.774Z,22.30
2019-04-21T14:55:57.397Z,22.30
2019-04-21T14:58:28.026Z,22.20
2019-04-21T15:01:04.200Z,22.30
2019-04-21T15:03:34.381Z,22.30
2019-04-21T15:06:05.527Z,22.40
2019-04-21T15:08:35.670Z,22.50
2019-04-21T15:11:05.703Z,22.50
2019-04-21T15:13:35.719Z,22.40
2019-04-21T15:16:06.862Z,22.40
2019-04-21T15:18:38.891Z,22.20
2019-04-21T15:21:09.492Z,22.10
2019-04-21T15:23:40.316Z,22.00
2019-04-21T15:26:12.244Z,21.90
2019-04-21T15:28:42.774Z,21.70
2019-04-21T15:31:21.855Z,21.60
2019-04-21T15:33:45.495Z,21.60
2019-04-21T15:36:16.715Z,21.60
2019-04-21T15:38:47.902Z,21.60
2019-04-21T15:41:18.644Z,21.70
2019-04-21T15:43:49.078Z,21.80
2019-04-21T15:46:18.833Z,21.90
2019-04-21T15:48:50.849Z,21.90
2019-04-21T15:51:21.961Z,21.90
2019-04-21T15:53:52.450Z,22.00
2019-04-21T15:56:26.853Z,22.00
2019-04-21T15:59:02.424Z,22.00
2019-04-21T16:01:36.765Z,22.00
2019-04-21T16:04:08.645Z,22.00
2019-04-21T16:06:39.374Z,22.00
2019-04-21T16:09:16.136Z,22.00
2019-04-21T16:11:42.066Z,21.90
2019-04-21T16:14:14.533Z,21.80
2019-04-21T16:16:45.422Z,21.80
2019-04-21T16:19:16.443Z,21.80
2019-04-21T16:21:48.577Z,21.70
2019-04-21T16:24:19.044Z,21.60
2019-04-21T16:26:50.808Z,21.40
2019-04-21T16:29:20.888Z,21.40
2019-04-21T16:31:51.419Z,21.40
2019-04-21T16:34:22.011Z,21.40
2019-04-21T16:36:53.907Z,21.30
2019-04-21T16:39:25.322Z,21.20
2019-04-21T16:41:56.317Z,21.10
2019-04-21T16:44:27.398Z,21.10
2019-04-21T16:46:57.503Z,21.00
2019-04-21T16:49:27.504Z,20.90
2019-04-21T16:52:23.926Z,20.80
2019-04-21T16:55:00.227Z,20.70
2019-04-21T16:57:35.706Z,20.60
2019-04-21T17:00:10.744Z,20.60
2019-04-21T17:02:40.863Z,20.50
2019-04-21T17:05:12.160Z,20.50
2019-04-21T17:07:43.014Z,20.40
2019-04-21T17:10:14.765Z,20.30
2019-04-21T17:12:45.559Z,20.30
2019-04-21T17:15:34.074Z,20.30
2019-04-21T17:18:06.089Z,20.20
2019-04-21T17:20:35.456Z,20.00
2019-04-21T17:22:53.714Z,19.90
2019-04-21T17:25:26.141Z,19.70
2019-04-21T17:27:56.872Z,19.50
2019-04-21T17:30:28.431Z,19.30
2019-04-21T17:32:59.479Z,19.20
2019-04-21T17:35:31.085Z,19.00
2019-04-21T17:38:01.659Z,18.80
2019-04-21T17:40:33.780Z,18.70
2019-04-21T17:43:07.593Z,18.60
2019-04-21T17:45:37.189Z,18.40
2019-04-21T17:48:13.911Z,18.30
2019-04-21T17:50:47.469Z,18.10
2019-04-21T17:53:26.565Z,17.90
2019-04-21T17:56:16.735Z,17.70
2019-04-21T17:58:43.319Z,17.50
2019-04-21T18:01:19.349Z,17.40
2019-04-21T18:03:58.792Z,17.20
2019-04-21T18:06:19.436Z,17.10
2019-04-21T18:08:54.843Z,17.00
2019-04-21T18:11:18.074Z,16.90
2019-04-21T18:13:39.647Z,16.80
2019-04-21T18:16:22.681Z,16.60
2019-04-21T18:18:41.893Z,16.50
2019-04-21T18:21:22.966Z,16.40
2019-04-21T18:24:05.654Z,16.30
2019-04-21T18:26:38.021Z,16.30
2019-04-21T18:29:01.222Z,16.30
2019-04-21T18:31:37.629Z,16.30
2019-04-21T18:34:16.303Z,16.30
2019-04-21T18:36:50.258Z,16.30
2019-04-21T18:39:40.627Z,16.30
2019-04-21T18:42:17.546Z,16.20
2019-04-21T18:45:27.864Z,16.10
2019-04-21T18:47:55.277Z,16.10
2019-04-21T18:50:42.051Z,16.10
2019-04-21T18:53:32.701Z,16.10
2019-04-21T18:55:56.508Z,16.10
2019-04-21T18:58:24.285Z,15.90
2019-04-21T19:01:04.534Z,15.80
2019-04-21T19:03:35.224Z,15.80
2019-04-21T19:06:03.972Z,15.90
2019-04-21T19:08:53.641Z,15.90
2019-04-21T19:14:31.638Z,15.90
2019-04-21T19:19:39.194Z,15.80
2019-04-21T19:22:00.179Z,15.60
2019-04-21T19:27:05.408Z,15.50
2019-04-21T19:29:37.570Z,15.40
2019-04-21T19:32:11.938Z,15.40
2019-04-21T19:34:25.765Z,15.40
2019-04-21T19:37:03.575Z,15.40
2019-04-21T19:39:39.073Z,15.30
2019-04-21T19:42:08.597Z,15.30
2019-04-21T19:44:47.175Z,15.30
2019-04-21T19:47:25.647Z,15.30
2019-04-21T19:49:55.037Z,15.40
2019-04-21T19:52:11.095Z,15.30
2019-04-21T19:54:41.212Z,15.20
2019-04-21T19:57:09.028Z,15.30
2019-04-21T19:59:47.670Z,15.30
2019-04-21T20:02:12.310Z,15.20
2019-04-21T20:04:51.569Z,15.10
2019-04-21T20:07:25.706Z,15.20
2019-04-21T20:10:06.696Z,15.20
2019-04-21T20:12:39.852Z,15.30
2019-04-21T20:15:20.270Z,15.30
2019-04-21T20:17:42.449Z,15.20
2019-04-21T20:19:58.250Z,15.30
2019-04-21T20:22:32.672Z,15.40
2019-04-21T20:25:08.263Z,15.40
2019-04-21T20:27:42.860Z,15.30
2019-04-21T20:30:26.106Z,15.50
2019-04-21T20:32:57.542Z,15.50
2019-04-21T20:37:57.661Z,15.20
2019-04-21T20:40:25.285Z,15.10
2019-04-21T20:43:08.253Z,15.00
2019-04-21T20:45:41.757Z,15.00
2019-04-21T20:47:54.192Z,15.00
2019-04-21T20:50:37.931Z,14.90
2019-04-21T20:53:11.027Z,14.90
2019-04-21T20:55:37.951Z,14.70
2019-04-21T20:58:09.221Z,14.60
2019-04-21T21:00:56.195Z,14.40
2019-04-21T21:03:24.263Z,14.20
2019-04-21T21:05:49.679Z,14.00
2019-04-21T21:08:30.911Z,13.80
2019-04-21T21:10:53.279Z,13.70
2019-04-21T21:13:33.394Z,13.50
2019-04-21T21:16:10.831Z,13.40
2019-04-21T21:19:01.186Z,13.30
2019-04-21T21:21:06.363Z,13.30
2019-04-21T21:23:42.961Z,13.30
2019-04-21T21:26:18.846Z,13.20
2019-04-21T21:28:38.013Z,13.20
2019-04-21T21:31:13.349Z,13.10
2019-04-21T21:33:52.491Z,13.00
2019-04-21T21:36:26.517Z,13.10
2019-04-21T21:38:52.992Z,13.20
2019-04-21T21:41:14.107Z,13.30
2019-04-21T21:43:37.784Z,13.20
2019-04-21T21:46:26.708Z,13.00
2019-04-21T21:48:51.399Z,12.70
2019-04-21T21:51:19.260Z,12.50
2019-04-21T21:53:44.368Z,12.50
2019-04-21T21:56:16.455Z,12.70
2019-04-21T21:58:48.137Z,13.10
2019-04-21T22:01:21.765Z,13.30
2019-04-21T22:04:15.289Z,13.60
2019-04-21T22:06:50.427Z,13.80
2019-04-21T22:09:12.720Z,13.80
2019-04-21T22:11:44.265Z,13.70
2019-04-21T22:14:22.944Z,13.90
2019-04-21T22:17:06.472Z,14.10
2019-04-21T22:19:35.982Z,14.20
2019-04-21T22:22:11.544Z,14.10
2019-04-21T22:24:39.990Z,14.10
2019-04-21T22:26:54.754Z,14.10
2019-04-21T22:29:27.897Z,14.00
2019-04-21T22:32:04.306Z,13.90
2019-04-21T22:34:34.280Z,14.00
2019-04-21T22:37:18.085Z,14.10
2019-04-21T22:39:51.669Z,14.10
2019-04-21T22:42:15.783Z,14.30
2019-04-21T22:44:38.618Z,14.40
2019-04-21T22:47:15.681Z,14.20
2019-04-21T22:49:41.002Z,14.50
2019-04-21T22:52:16.677Z,14.60
2019-04-21T22:54:44.965Z,14.40
2019-04-21T22:57:18.416Z,14.50
2019-04-21T22:59:54.961Z,14.70
2019-04-21T23:02:24.948Z,14.90
2019-04-21T23:04:54.651Z,14.60
2019-04-21T23:07:25.826Z,14.40
2019-04-21T23:09:55.536Z,14.00
2019-04-21T23:12:30.689Z,13.70
2019-04-21T23:15:03.823Z,13.60
2019-04-21T23:17:50.758Z,13.80
2019-04-21T23:20:17.307Z,13.80
2019-04-21T23:22:59.645Z,13.60
2019-04-21T23:25:25.156Z,13.80
2019-04-21T23:27:53.890Z,13.80
2019-04-21T23:30:33.562Z,13.90
2019-04-21T23:32:50.467Z,14.10
2019-04-21T23:35:19.724Z,14.10
2019-04-21T23:37:51.938Z,13.80
2019-04-21T23:40:20.243Z,13.50
2019-04-21T23:42:49.199Z,13.20
2019-04-21T23:45:25.231Z,13.30
2019-04-21T23:48:06.976Z,13.40
2019-04-21T23:50:35.246Z,13.30
2019-04-21T23:52:57.464Z,13.30
2019-04-21T23:55:29.432Z,13.20
2019-04-21T23:58:09.418Z,13.10
